createdAt,value
2022-11-27T00:13:27.214Z,0
2022-11-27T00:28:29.307Z,19.8
2022-11-27T00:43:32.495Z,19.8
2022-11-27T00:58:41.768Z,0
2022-11-27T01:13:43.675Z,0
2022-11-27T01:28:45.646Z,0
2022-11-27T01:43:47.584Z,0
2022-11-27T01:58:49.542Z,0
2022-11-27T02:13:51.471Z,0
2022-11-27T02:28:53.378Z,0
2022-11-27T02:43:55.294Z,0
2022-11-27T02:58:57.290Z,0
2022-11-27T03:13:59.178Z,0
2022-11-27T03:29:01.072Z,0
2022-11-27T03:44:02.997Z,0
2022-11-27T03:59:04.925Z,0
2022-11-27T04:14:06.830Z,0
2022-11-27T04:29:08.757Z,0
2022-11-27T04:44:10.659Z,0
2022-11-27T04:59:12.583Z,0
2022-11-27T05:14:14.490Z,0
2022-11-27T05:29:16.484Z,0
2022-11-27T05:44:18.387Z,0
2022-11-27T05:59:20.301Z,0
2022-11-27T06:14:22.200Z,0
2022-11-27T06:29:24.099Z,0
2022-11-27T06:44:26.017Z,0
2022-11-27T06:59:27.958Z,0
2022-11-27T07:14:30.070Z,0
2022-11-27T07:29:31.984Z,0
2022-11-27T07:44:33.892Z,0
2022-11-27T07:59:35.799Z,0
2022-11-27T08:14:38.385Z,0
2022-11-27T08:29:40.452Z,0
2022-11-27T08:44:42.719Z,0
2022-11-27T08:59:44.973Z,0
2022-11-27T09:14:46.892Z,0
2022-11-27T09:29:48.790Z,0
2022-11-27T09:44:50.707Z,0
2022-11-27T09:59:52.621Z,0
2022-11-27T10:14:54.545Z,0
2022-11-27T10:29:56.450Z,0
2022-11-27T10:44:58.360Z,0
2022-11-27T11:00:00.300Z,0
2022-11-27T11:15:02.152Z,0
2022-11-27T11:30:04.131Z,0
2022-11-27T11:45:05.995Z,0
2022-11-27T12:00:07.903Z,0
2022-11-27T12:15:09.818Z,0
2022-11-27T12:30:11.722Z,0
2022-11-27T12:45:13.639Z,0
2022-11-27T13:00:15.696Z,0
2022-11-27T13:15:17.563Z,0
2022-11-27T13:30:19.447Z,0
2022-11-27T13:45:21.301Z,0
2022-11-27T14:00:23.161Z,0
2022-11-27T14:15:24.984Z,0
2022-11-27T14:30:26.846Z,0
2022-11-27T14:45:28.694Z,0
2022-11-27T15:00:30.533Z,0
2022-11-27T15:15:32.424Z,0
2022-11-27T15:30:34.339Z,3.6
2022-11-27T15:45:36.328Z,10.8
2022-11-27T16:00:38.283Z,25.2
2022-11-27T16:15:40.125Z,36
2022-11-27T16:30:41.940Z,43.2
2022-11-27T16:45:43.977Z,50.4
2022-11-27T17:00:45.912Z,54
2022-11-27T17:15:47.830Z,55.8
2022-11-27T17:30:49.714Z,59.4
2022-11-27T17:45:51.658Z,63
2022-11-27T18:00:53.672Z,66.6
2022-11-27T18:15:55.604Z,70.2
2022-11-27T18:30:57.506Z,64.8
2022-11-27T18:45:59.489Z,64.8
2022-11-27T19:01:01.525Z,66.6
2022-11-27T19:16:03.450Z,64.8
2022-11-27T19:31:05.387Z,66.6
2022-11-27T19:46:07.348Z,70.2
2022-11-27T20:01:09.420Z,77.4
2022-11-27T20:16:11.482Z,75.6
2022-11-27T20:31:13.545Z,73.8
2022-11-27T20:46:15.624Z,57.6
2022-11-27T21:01:17.679Z,57.6
2022-11-27T21:16:19.679Z,75.6
2022-11-27T21:31:21.743Z,30.6
2022-11-27T21:46:23.774Z,37.8
2022-11-27T22:01:25.875Z,27
2022-11-27T22:16:27.881Z,21.6
2022-11-27T22:31:30.051Z,14.4
2022-11-27T22:46:32.123Z,28.8
2022-11-27T23:01:34.023Z,34.2
2022-11-27T23:16:36.023Z,28.8
2022-11-27T23:31:38.050Z,25.2
2022-11-27T23:46:40.064Z,21.6
